Dameron, Maryland
Current Conditions -  °F | °C
As of 10:53 AM on Friday 24 Oct 2014 (Local Time) from KNUI Reporting Station
Clear Clear  
Wind Chill: 61°   Ceiling: Unl
Heat Index: 61°   Visibility: 10mi
Dew Point: 42°   Wind: 13mph
Humidity: 50%   Direction: 310°NW
Pressure: 29.95"   Gusts: 17mph
Location:  38.14°N, 76.35°W
Report Text: KNUI 241453Z AUTO 31011G15KT 10SM CLR 16/06 A2995 RMK AO2 SLP142 T01610056 $
Loading
Personal Weather Stations






























Interactive Weather Map
Tropical Storm Tracking
New forecast layout! Learn more

10-Day Weather Forecast

Advertisements
Track Severe Weather on mobile